createdAt,value
2022-11-20T00:00:28.004Z,10.80
2022-11-20T00:01:31.390Z,10.65
2022-11-20T00:02:33.342Z,10.85
2022-11-20T00:03:36.575Z,11.48
2022-11-20T00:04:40.463Z,11.27
2022-11-20T00:05:43.375Z,11.80
2022-11-20T00:06:45.302Z,12.68
2022-11-20T00:07:48.304Z,12.15
2022-11-20T00:08:50.662Z,12.35
2022-11-20T00:09:53.551Z,12.93
2022-11-20T00:10:55.490Z,12.23
2022-11-20T00:11:58.383Z,13.00
2022-11-20T00:13:00.333Z,12.38
2022-11-20T00:14:04.284Z,10.50
2022-11-20T00:15:07.104Z,12.10
2022-11-20T00:16:12.920Z,11.35
2022-11-20T00:17:14.897Z,10.95
2022-11-20T00:18:17.858Z,11.85
2022-11-20T00:19:20.110Z,11.80
2022-11-20T00:20:24.967Z,12.15
2022-11-20T00:21:28.581Z,10.85
2022-11-20T00:22:31.457Z,11.18
2022-11-20T00:23:33.470Z,12.20
2022-11-20T00:24:40.292Z,12.30
2022-11-20T00:25:44.947Z,12.40
2022-11-20T00:26:47.847Z,11.90
2022-11-20T00:27:49.860Z,11.10
2022-11-20T00:28:54.763Z,11.82
2022-11-20T00:29:56.783Z,11.80
2022-11-20T00:31:04.645Z,10.60
2022-11-20T00:32:06.833Z,11.77
2022-11-20T00:33:09.815Z,10.40
2022-11-20T00:34:11.873Z,10.80
2022-11-20T00:35:14.824Z,10.75
2022-11-20T00:36:20.392Z,12.45
2022-11-20T00:37:23.514Z,11.20
2022-11-20T00:38:25.483Z,11.13
2022-11-20T00:39:28.435Z,10.18
2022-11-20T00:40:30.392Z,10.95
2022-11-20T00:41:33.339Z,11.43
2022-11-20T00:42:35.535Z,11.68
2022-11-20T00:43:39.080Z,11.52
2022-11-20T00:44:40.984Z,11.68
2022-11-20T00:45:43.896Z,10.75
2022-11-20T00:46:45.885Z,10.57
2022-11-20T00:47:49.087Z,13.40
2022-11-20T00:48:51.244Z,10.65
2022-11-20T00:49:54.177Z,10.65
2022-11-20T00:50:56.515Z,11.07
2022-11-20T00:52:00.822Z,10.20
2022-11-20T00:53:02.810Z,10.52
2022-11-20T00:54:05.828Z,10.20
2022-11-20T00:55:08.229Z,9.82
2022-11-20T00:56:13.217Z,9.65
2022-11-20T00:57:15.135Z,10.27
2022-11-20T00:58:18.037Z,12.10
2022-11-20T00:59:20.223Z,11.57
2022-11-20T01:00:23.301Z,10.73
2022-11-20T01:01:26.708Z,10.90
2022-11-20T01:02:29.741Z,10.57
2022-11-20T01:03:32.605Z,9.90
2022-11-20T01:04:35.623Z,11.70
2022-11-20T01:05:37.650Z,10.32
2022-11-20T01:06:41.750Z,12.00
2022-11-20T01:07:45.113Z,13.25
2022-11-20T01:08:49.829Z,11.82
2022-11-20T01:09:51.813Z,10.85
2022-11-20T01:10:54.735Z,10.95
2022-11-20T01:11:57.231Z,9.95
2022-11-20T01:13:14.092Z,10.50
2022-11-20T01:14:20.460Z,10.20
2022-11-20T01:15:22.367Z,11.25
2022-11-20T01:16:27.611Z,9.85
2022-11-20T01:17:29.678Z,9.52
2022-11-20T01:18:32.663Z,9.27
2022-11-20T01:19:34.624Z,9.35
2022-11-20T01:20:37.933Z,8.82
2022-11-20T01:21:42.440Z,9.82
2022-11-20T01:22:46.765Z,9.30
2022-11-20T01:23:50.850Z,10.60
2022-11-20T01:24:52.824Z,8.90
2022-11-20T01:25:55.746Z,10.05
2022-11-20T01:26:58.655Z,11.23
2022-11-20T01:28:00.581Z,9.40
2022-11-20T01:29:04.428Z,10.40
2022-11-20T01:30:08.773Z,10.70
2022-11-20T01:31:16.912Z,10.10
2022-11-20T01:32:19.803Z,9.57
2022-11-20T01:33:21.747Z,9.70
2022-11-20T01:34:25.875Z,9.57
2022-11-20T01:35:27.895Z,10.20
2022-11-20T01:36:32.935Z,10.10
2022-11-20T01:37:34.892Z,9.77
2022-11-20T01:38:39.608Z,10.32
2022-11-20T01:39:41.597Z,10.45
2022-11-20T01:40:44.624Z,9.50
2022-11-20T01:42:09.701Z,9.57
2022-11-20T01:43:23.731Z,8.02
2022-11-20T01:44:46.435Z,10.50
2022-11-20T01:46:16.999Z,9.68
2022-11-20T01:47:24.789Z,9.38
2022-11-20T01:48:33.935Z,9.35
2022-11-20T01:49:39.728Z,9.00
2022-11-20T01:50:44.084Z,9.00
2022-11-20T01:51:52.391Z,10.23
2022-11-20T01:52:59.162Z,9.48
2022-11-20T01:54:07.474Z,9.75
2022-11-20T01:55:14.125Z,9.70
2022-11-20T01:56:16.642Z,9.88
2022-11-20T01:57:21.893Z,9.48
2022-11-20T01:58:29.929Z,9.95
2022-11-20T01:59:33.175Z,10.07
2022-11-20T02:00:35.921Z,8.93
2022-11-20T02:01:40.231Z,9.15
2022-11-20T02:02:47.124Z,9.23
2022-11-20T02:03:51.490Z,8.93
2022-11-20T02:04:58.053Z,9.60
2022-11-20T02:06:10.333Z,10.27
2022-11-20T02:07:12.718Z,9.40
2022-11-20T02:08:15.808Z,9.13
2022-11-20T02:09:19.644Z,9.68
2022-11-20T02:10:23.197Z,9.13
2022-11-20T02:11:25.225Z,8.93
2022-11-20T02:12:45.555Z,8.35
2022-11-20T02:13:48.978Z,8.88
2022-11-20T02:14:50.967Z,9.40
2022-11-20T02:15:53.292Z,8.98
2022-11-20T02:16:57.006Z,9.90
2022-11-20T02:17:59.160Z,9.68
2022-11-20T02:19:06.136Z,10.38
2022-11-20T02:20:09.385Z,13.18
2022-11-20T02:21:19.940Z,12.00
2022-11-20T02:22:28.632Z,10.32
2022-11-20T02:23:38.573Z,9.55
2022-11-20T02:24:45.296Z,9.95
2022-11-20T02:25:48.570Z,10.30
2022-11-20T02:26:55.261Z,8.52
2022-11-20T02:27:57.739Z,8.60
2022-11-20T02:29:02.740Z,9.77
2022-11-20T02:30:08.570Z,9.00
2022-11-20T02:31:10.673Z,9.13
2022-11-20T02:32:21.175Z,9.55
2022-11-20T02:33:23.175Z,9.50
2022-11-20T02:34:26.121Z,10.10
2022-11-20T02:35:45.456Z,10.45
2022-11-20T02:36:50.114Z,9.00
2022-11-20T02:37:55.728Z,8.77
2022-11-20T02:38:58.641Z,9.40
2022-11-20T02:40:02.059Z,8.10
2022-11-20T02:41:05.176Z,9.13
2022-11-20T02:42:08.472Z,9.27
2022-11-20T02:43:10.665Z,9.82
2022-11-20T02:44:13.660Z,9.73
2022-11-20T02:45:15.563Z,8.20
2022-11-20T02:46:18.472Z,9.45
2022-11-20T02:47:20.431Z,10.25
2022-11-20T02:48:25.190Z,10.68
2022-11-20T02:49:28.360Z,9.77
2022-11-20T02:50:30.310Z,9.65
2022-11-20T02:51:33.792Z,9.80
2022-11-20T02:52:35.832Z,9.35
2022-11-20T02:53:38.722Z,9.45
2022-11-20T02:54:40.684Z,9.75
2022-11-20T02:55:45.046Z,10.23
2022-11-20T02:56:47.014Z,8.93
2022-11-20T02:57:50.020Z,8.63
2022-11-20T02:58:52.030Z,9.68
2022-11-20T02:59:54.990Z,9.05
2022-11-20T03:00:56.976Z,8.40
2022-11-20T03:01:59.930Z,10.13
2022-11-20T03:03:02.564Z,10.00
2022-11-20T03:04:05.959Z,9.50
2022-11-20T03:05:08.174Z,9.88
2022-11-20T03:06:11.432Z,10.30
2022-11-20T03:07:13.561Z,10.23
2022-11-20T03:08:16.512Z,9.80
2022-11-20T03:09:18.574Z,10.40
2022-11-20T03:10:21.608Z,9.70
2022-11-20T03:11:25.460Z,10.48
2022-11-20T03:12:28.472Z,10.55
2022-11-20T03:13:30.441Z,10.18
2022-11-20T03:14:33.720Z,9.60
2022-11-20T03:15:37.567Z,9.55
2022-11-20T03:16:40.632Z,8.95
2022-11-20T03:17:42.608Z,9.27
2022-11-20T03:18:46.197Z,10.52
2022-11-20T03:19:48.436Z,9.35
2022-11-20T03:20:51.408Z,10.20
2022-11-20T03:21:53.408Z,9.32
2022-11-20T03:22:56.915Z,10.15
2022-11-20T03:23:58.861Z,9.23
2022-11-20T03:25:01.821Z,9.07
2022-11-20T03:26:16.152Z,9.52
2022-11-20T03:27:19.511Z,8.90
2022-11-20T03:28:22.509Z,9.88
2022-11-20T03:29:24.511Z,9.93
2022-11-20T03:30:30.515Z,9.27
2022-11-20T03:31:35.236Z,9.77
2022-11-20T03:32:38.343Z,10.20
2022-11-20T03:33:41.747Z,10.02
2022-11-20T03:34:44.684Z,9.50
2022-11-20T03:35:46.629Z,9.65
2022-11-20T03:36:49.560Z,9.57
2022-11-20T03:37:51.467Z,9.35
2022-11-20T03:38:56.041Z,10.10
2022-11-20T03:39:57.945Z,9.10
2022-11-20T03:41:02.749Z,10.18
2022-11-20T03:42:24.977Z,11.20
2022-11-20T03:43:29.338Z,9.15
2022-11-20T03:44:31.339Z,8.85
2022-11-20T03:45:34.693Z,10.48
2022-11-20T03:46:37.222Z,9.55
2022-11-20T03:47:40.131Z,10.30
2022-11-20T03:48:42.087Z,11.20
2022-11-20T03:49:45.065Z,9.43
2022-11-20T03:50:48.608Z,9.95
2022-11-20T03:51:51.620Z,9.48
2022-11-20T03:52:53.611Z,10.30
2022-11-20T03:53:59.828Z,9.65
2022-11-20T03:55:01.794Z,9.57
2022-11-20T03:56:05.188Z,9.05
2022-11-20T03:57:07.113Z,10.63
2022-11-20T03:58:10.004Z,9.55
2022-11-20T03:59:13.468Z,9.13
2022-11-20T04:00:17.089Z,9.63
2022-11-20T04:01:21.045Z,10.27
2022-11-20T04:02:24.115Z,10.25
2022-11-20T04:03:26.888Z,9.95
2022-11-20T04:04:29.861Z,8.50
2022-11-20T04:05:33.717Z,9.50
2022-11-20T04:06:38.520Z,9.65
2022-11-20T04:07:40.800Z,9.82
2022-11-20T04:08:44.122Z,9.88
2022-11-20T04:09:46.108Z,10.05
2022-11-20T04:10:49.086Z,9.30
2022-11-20T04:11:51.003Z,10.25
2022-11-20T04:12:53.920Z,10.40
2022-11-20T04:13:58.717Z,9.75
2022-11-20T04:15:03.012Z,10.20
2022-11-20T04:16:05.713Z,10.45
2022-11-20T04:17:08.659Z,10.07
2022-11-20T04:18:10.592Z,10.30
2022-11-20T04:19:15.607Z,9.85
2022-11-20T04:20:17.587Z,9.65
2022-11-20T04:21:20.509Z,11.02
2022-11-20T04:22:22.469Z,9.32
2022-11-20T04:23:28.672Z,9.70
2022-11-20T04:24:31.005Z,9.73
2022-11-20T04:25:33.928Z,9.27
2022-11-20T04:26:36.244Z,9.43
2022-11-20T04:27:39.228Z,9.88
2022-11-20T04:28:42.077Z,9.10
2022-11-20T04:29:45.035Z,9.65
2022-11-20T04:30:48.309Z,9.57
2022-11-20T04:31:51.292Z,9.88
2022-11-20T04:32:53.328Z,9.23
2022-11-20T04:33:56.540Z,9.90
2022-11-20T04:34:59.522Z,8.88
2022-11-20T04:36:04.011Z,9.20
2022-11-20T04:37:06.910Z,9.68
2022-11-20T04:38:08.925Z,9.45
2022-11-20T04:39:15.643Z,10.55
2022-11-20T04:40:17.696Z,9.05
2022-11-20T04:41:22.601Z,9.82
2022-11-20T04:42:30.593Z,10.00
2022-11-20T04:43:34.588Z,8.65
2022-11-20T04:44:36.562Z,10.40
2022-11-20T04:45:39.453Z,10.13
2022-11-20T04:46:44.399Z,9.00
2022-11-20T04:47:46.390Z,10.23
2022-11-20T04:48:49.716Z,9.40
2022-11-20T04:49:51.827Z,9.90
2022-11-20T04:50:55.304Z,9.70
2022-11-20T04:51:57.233Z,8.68
2022-11-20T04:53:00.145Z,9.50
2022-11-20T04:54:02.261Z,10.05
2022-11-20T04:55:06.164Z,10.05
2022-11-20T04:56:09.911Z,9.18
2022-11-20T04:57:14.923Z,9.63
2022-11-20T04:58:17.472Z,9.43
2022-11-20T04:59:20.675Z,11.10
2022-11-20T05:00:23.137Z,10.77
2022-11-20T05:01:26.720Z,9.52
2022-11-20T05:02:32.044Z,10.27
2022-11-20T05:03:39.731Z,10.15
2022-11-20T05:04:45.133Z,10.00
2022-11-20T05:05:47.075Z,9.48
2022-11-20T05:06:51.204Z,10.63
2022-11-20T05:07:53.211Z,9.45
2022-11-20T05:08:56.181Z,10.20
2022-11-20T05:09:58.133Z,10.20
2022-11-20T05:11:04.984Z,11.48
2022-11-20T05:12:08.635Z,8.98
2022-11-20T05:13:11.650Z,9.55
2022-11-20T05:14:13.643Z,10.55
2022-11-20T05:15:16.967Z,9.45
2022-11-20T05:16:21.213Z,9.43
2022-11-20T05:17:24.383Z,11.52
2022-11-20T05:18:27.683Z,12.70
2022-11-20T05:19:30.649Z,14.95
2022-11-20T05:20:32.604Z,11.18
2022-11-20T05:21:35.646Z,12.45
2022-11-20T05:22:37.585Z,10.88
2022-11-20T05:23:41.123Z,10.77
2022-11-20T05:24:43.071Z,11.95
2022-11-20T05:25:45.948Z,8.35
2022-11-20T05:26:47.964Z,10.82
2022-11-20T05:27:50.896Z,10.32
2022-11-20T05:28:52.962Z,9.85
2022-11-20T05:29:55.908Z,10.15
2022-11-20T05:31:04.608Z,9.60
2022-11-20T05:32:09.951Z,9.20
2022-11-20T05:33:11.922Z,9.73
2022-11-20T05:34:16.436Z,10.23
2022-11-20T05:35:18.463Z,9.18
2022-11-20T05:36:21.582Z,9.65
2022-11-20T05:37:23.531Z,9.25
2022-11-20T05:38:26.548Z,9.32
2022-11-20T05:39:28.495Z,8.98
2022-11-20T05:40:31.485Z,9.63
2022-11-20T05:41:34.425Z,8.70
2022-11-20T05:42:37.381Z,9.75
2022-11-20T05:43:40.769Z,9.68
2022-11-20T05:44:43.691Z,11.40
2022-11-20T05:45:53.346Z,9.35
2022-11-20T05:46:56.319Z,9.13
2022-11-20T05:48:00.253Z,9.32
2022-11-20T05:49:03.220Z,8.85
2022-11-20T05:50:07.205Z,8.85
2022-11-20T05:51:12.175Z,9.68
2022-11-20T05:52:14.223Z,7.93
2022-11-20T05:53:17.119Z,10.05
2022-11-20T05:54:20.197Z,9.70
2022-11-20T05:55:22.135Z,9.40
2022-11-20T05:56:25.108Z,10.05
2022-11-20T05:57:27.021Z,10.70
2022-11-20T05:58:30.237Z,9.80
2022-11-20T05:59:32.202Z,9.70
2022-11-20T06:00:35.185Z,11.23
2022-11-20T06:01:37.124Z,9.48
2022-11-20T06:02:40.066Z,9.75
2022-11-20T06:03:43.412Z,9.60
2022-11-20T06:04:46.424Z,9.13
2022-11-20T06:05:49.744Z,9.60
2022-11-20T06:06:52.674Z,8.95
2022-11-20T06:07:55.168Z,9.50
2022-11-20T06:08:59.862Z,9.85
2022-11-20T06:10:01.825Z,10.63
2022-11-20T06:11:09.066Z,10.40
2022-11-20T06:12:10.983Z,9.90
2022-11-20T06:13:13.974Z,10.93
2022-11-20T06:14:16.180Z,10.20
2022-11-20T06:15:19.263Z,9.63
2022-11-20T06:16:22.704Z,10.95
2022-11-20T06:17:25.707Z,8.77
2022-11-20T06:18:29.257Z,10.30
2022-11-20T06:19:32.298Z,10.80
2022-11-20T06:20:39.248Z,12.43
2022-11-20T06:21:46.201Z,12.93
2022-11-20T06:22:48.201Z,12.65
2022-11-20T06:23:52.420Z,10.27
2022-11-20T06:24:54.439Z,10.18
2022-11-20T06:25:57.341Z,9.93
2022-11-20T06:27:00.264Z,10.32
2022-11-20T06:28:02.180Z,9.90
2022-11-20T06:29:05.237Z,10.27
2022-11-20T06:30:08.371Z,10.63
2022-11-20T06:31:14.340Z,10.35
2022-11-20T06:32:16.283Z,9.85
2022-11-20T06:33:19.196Z,9.38
2022-11-20T06:34:21.325Z,9.05
2022-11-20T06:35:24.365Z,11.20
2022-11-20T06:36:26.384Z,9.13
2022-11-20T06:37:30.679Z,8.82
2022-11-20T06:38:32.707Z,9.43
2022-11-20T06:39:35.696Z,8.90
2022-11-20T06:40:40.490Z,10.10
2022-11-20T06:41:43.451Z,9.32
2022-11-20T06:42:45.631Z,8.50
2022-11-20T06:43:48.927Z,9.55
2022-11-20T06:44:50.823Z,8.77
2022-11-20T06:45:54.963Z,8.25
2022-11-20T06:46:57.007Z,8.43
2022-11-20T06:48:00.130Z,9.55
2022-11-20T06:49:03.628Z,8.15
2022-11-20T06:50:06.296Z,8.20
2022-11-20T06:51:09.985Z,10.23
2022-11-20T06:52:12.009Z,8.40
2022-11-20T06:53:16.429Z,8.98
2022-11-20T06:54:19.365Z,9.15
2022-11-20T06:55:21.359Z,9.15
2022-11-20T06:56:24.263Z,8.38
2022-11-20T06:57:26.168Z,47.53
2022-11-20T06:58:30.640Z,56.38
2022-11-20T06:59:33.547Z,39.55
2022-11-20T07:00:35.603Z,22.67
2022-11-20T07:01:38.592Z,15.20
2022-11-20T07:02:40.601Z,13.05
2022-11-20T07:03:43.796Z,12.07
2022-11-20T07:04:45.787Z,11.35
2022-11-20T07:05:48.752Z,9.07
2022-11-20T07:06:51.732Z,16.83
2022-11-20T07:07:56.528Z,16.25
2022-11-20T07:09:00.880Z,28.83
2022-11-20T07:10:02.875Z,30.75
2022-11-20T07:11:08.034Z,34.60
2022-11-20T07:12:09.979Z,24.02
2022-11-20T07:13:12.893Z,18.20
2022-11-20T07:14:14.891Z,14.75
2022-11-20T07:15:17.808Z,14.25
2022-11-20T07:16:20.838Z,13.38
2022-11-20T07:17:22.782Z,12.60
2022-11-20T07:18:25.675Z,10.75
2022-11-20T07:19:27.613Z,9.05
2022-11-20T07:20:30.571Z,9.85
2022-11-20T07:21:33.535Z,9.02
2022-11-20T07:22:35.476Z,10.60
2022-11-20T07:23:38.688Z,9.45
2022-11-20T07:24:45.998Z,9.20
2022-11-20T07:25:49.277Z,9.43
2022-11-20T07:26:51.288Z,10.77
2022-11-20T07:27:54.560Z,9.25
2022-11-20T07:28:56.588Z,9.00
2022-11-20T07:29:59.571Z,8.52
2022-11-20T07:31:01.928Z,8.85
2022-11-20T07:32:06.573Z,9.50
2022-11-20T07:33:08.514Z,8.73
2022-11-20T07:34:11.467Z,8.80
2022-11-20T07:35:13.564Z,9.27
2022-11-20T07:36:16.690Z,9.20
2022-11-20T07:37:18.876Z,10.75
2022-11-20T07:38:21.944Z,10.05
2022-11-20T07:39:24.841Z,9.07
2022-11-20T07:40:28.916Z,8.23
2022-11-20T07:41:32.170Z,10.57
2022-11-20T07:42:34.141Z,10.43
2022-11-20T07:43:40.981Z,8.80
2022-11-20T07:44:43.447Z,7.70
2022-11-20T07:45:46.401Z,8.40
2022-11-20T07:46:48.304Z,7.25
2022-11-20T07:47:51.735Z,7.80
2022-11-20T07:48:53.639Z,7.10
2022-11-20T07:49:56.785Z,7.53
2022-11-20T07:50:59.682Z,7.38
2022-11-20T07:52:05.078Z,8.00
2022-11-20T07:53:08.784Z,7.30
2022-11-20T07:54:10.715Z,6.53
2022-11-20T07:55:13.933Z,8.27
2022-11-20T07:56:18.207Z,6.55
2022-11-20T07:57:24.288Z,6.32
2022-11-20T07:58:33.720Z,6.10
2022-11-20T07:59:36.637Z,7.07
2022-11-20T08:00:38.673Z,7.03
2022-11-20T08:01:42.098Z,7.10
2022-11-20T08:02:44.120Z,7.72
2022-11-20T08:03:47.119Z,7.43
2022-11-20T08:04:49.325Z,5.78
2022-11-20T08:05:52.271Z,6.45
2022-11-20T08:06:54.359Z,6.55
2022-11-20T08:07:57.296Z,5.60
2022-11-20T08:08:59.460Z,6.43
2022-11-20T08:10:02.375Z,7.20
2022-11-20T08:11:23.128Z,7.72
2022-11-20T08:12:44.678Z,5.82
2022-11-20T08:14:05.159Z,7.72
2022-11-20T08:15:13.064Z,7.43
2022-11-20T08:16:16.352Z,6.97
2022-11-20T08:17:18.348Z,7.03
2022-11-20T08:18:31.352Z,6.93
2022-11-20T08:19:33.997Z,6.57
2022-11-20T08:20:37.279Z,6.32
2022-11-20T08:21:40.428Z,6.30
2022-11-20T08:22:42.392Z,7.28
2022-11-20T08:23:45.349Z,6.47
2022-11-20T08:24:47.304Z,8.32
2022-11-20T08:25:52.314Z,8.85
2022-11-20T08:26:55.340Z,8.90
2022-11-20T08:28:00.576Z,8.00
2022-11-20T08:29:04.416Z,9.23
2022-11-20T08:30:07.912Z,9.13
2022-11-20T08:31:11.525Z,6.70
2022-11-20T08:32:13.530Z,6.95
2022-11-20T08:33:18.166Z,5.38
2022-11-20T08:34:20.088Z,6.50
2022-11-20T08:35:23.357Z,6.70
2022-11-20T08:36:25.947Z,6.32
2022-11-20T08:37:28.881Z,6.85
2022-11-20T08:38:31.370Z,5.80
2022-11-20T08:39:34.318Z,6.65
2022-11-20T08:40:36.290Z,6.35
2022-11-20T08:41:39.222Z,4.13
2022-11-20T08:42:47.615Z,5.38
2022-11-20T08:43:52.696Z,5.13
2022-11-20T08:44:55.674Z,5.68
2022-11-20T08:45:57.925Z,5.55
2022-11-20T08:47:02.310Z,5.40
2022-11-20T08:48:05.047Z,5.55
2022-11-20T08:49:09.432Z,5.43
2022-11-20T08:50:13.519Z,5.68
2022-11-20T08:51:15.921Z,5.95
2022-11-20T08:52:18.863Z,5.65
2022-11-20T08:53:20.859Z,5.50
2022-11-20T08:54:23.846Z,5.70
2022-11-20T08:55:25.778Z,5.68
2022-11-20T08:56:28.852Z,5.93
2022-11-20T08:57:32.893Z,5.53
2022-11-20T08:58:54.918Z,6.18
2022-11-20T09:00:06.008Z,5.30
2022-11-20T09:01:09.885Z,5.93
2022-11-20T09:02:13.044Z,4.68
2022-11-20T09:03:15.145Z,5.07
2022-11-20T09:04:18.088Z,4.60
2022-11-20T09:05:20.050Z,4.95
2022-11-20T09:06:23.097Z,4.65
2022-11-20T09:07:25.196Z,3.90
2022-11-20T09:08:28.575Z,4.18
2022-11-20T09:09:30.593Z,4.00
2022-11-20T09:10:33.813Z,3.40
2022-11-20T09:11:36.279Z,4.30
2022-11-20T09:12:39.232Z,4.90
2022-11-20T09:13:42.132Z,3.17
2022-11-20T09:14:45.241Z,3.60
2022-11-20T09:15:53.125Z,3.63
2022-11-20T09:16:56.072Z,2.88
2022-11-20T09:17:59.240Z,3.38
2022-11-20T09:19:28.657Z,3.63
2022-11-20T09:20:25.593Z,3.35
2022-11-20T09:21:27.836Z,3.42
2022-11-20T09:22:30.854Z,3.03
2022-11-20T09:23:35.739Z,2.60
2022-11-20T09:24:38.678Z,2.13
2022-11-20T09:25:41.646Z,2.42
2022-11-20T09:26:44.583Z,2.42
2022-11-20T09:27:47.134Z,3.30
2022-11-20T09:28:52.838Z,2.70
2022-11-20T09:29:57.289Z,3.10
2022-11-20T09:31:01.771Z,4.95
2022-11-20T09:32:04.071Z,3.90
2022-11-20T09:33:07.847Z,5.45
2022-11-20T09:34:10.998Z,5.72
2022-11-20T09:35:13.006Z,12.13
2022-11-20T09:36:16.996Z,5.28
2022-11-20T09:37:19.930Z,8.43
2022-11-20T09:38:21.904Z,7.35
2022-11-20T09:39:24.877Z,5.88
2022-11-20T09:40:29.120Z,6.60
2022-11-20T09:41:50.793Z,6.47
2022-11-20T09:42:58.637Z,13.57
2022-11-20T09:44:13.223Z,6.15
2022-11-20T09:45:26.402Z,4.57
2022-11-20T09:46:35.630Z,5.88
2022-11-20T09:47:56.160Z,10.38
2022-11-20T09:49:18.120Z,7.97
2022-11-20T09:50:28.400Z,5.47
2022-11-20T09:51:41.220Z,3.85
2022-11-20T09:52:55.504Z,2.65
2022-11-20T09:54:12.671Z,6.15
2022-11-20T09:55:16.547Z,6.53
2022-11-20T09:56:22.456Z,6.03
2022-11-20T09:57:32.456Z,5.28
2022-11-20T09:58:42.843Z,5.53
2022-11-20T09:59:47.729Z,6.40
2022-11-20T10:00:51.177Z,5.45
2022-11-20T10:01:56.309Z,7.38
2022-11-20T10:03:04.005Z,5.68
2022-11-20T10:04:12.422Z,3.75
2022-11-20T10:05:19.247Z,5.70
2022-11-20T10:06:30.478Z,4.97
2022-11-20T10:07:41.187Z,3.35
2022-11-20T10:08:46.911Z,3.28
2022-11-20T10:09:55.410Z,2.63
2022-11-20T10:11:04.481Z,2.92
2022-11-20T10:12:20.585Z,3.00
2022-11-20T10:13:33.796Z,2.58
2022-11-20T10:14:47.467Z,2.55
2022-11-20T10:16:00.596Z,3.05
2022-11-20T10:17:15.116Z,2.80
2022-11-20T10:18:28.011Z,2.70
2022-11-20T10:19:41.808Z,3.17
2022-11-20T10:20:49.617Z,3.03
2022-11-20T10:22:03.085Z,2.80
2022-11-20T10:23:26.141Z,2.63
2022-11-20T10:24:47.056Z,2.60
2022-11-20T10:25:59.241Z,3.00
2022-11-20T10:27:11.331Z,2.38
2022-11-20T10:28:30.003Z,2.80
2022-11-20T10:29:35.900Z,2.30
2022-11-20T10:30:42.773Z,3.17
2022-11-20T10:31:48.945Z,2.33
2022-11-20T10:32:55.764Z,2.33
2022-11-20T10:34:22.170Z,2.45
2022-11-20T10:35:28.742Z,2.55
2022-11-20T10:36:38.127Z,2.55
2022-11-20T10:37:44.020Z,2.67
2022-11-20T10:38:51.274Z,3.20
2022-11-20T10:39:59.093Z,2.72
2022-11-20T10:41:18.160Z,2.65
2022-11-20T10:42:31.827Z,2.50
2022-11-20T10:43:34.491Z,3.13
2022-11-20T10:45:10.716Z,2.40
2022-11-20T10:46:19.082Z,2.40
2022-11-20T10:47:22.033Z,2.30
2022-11-20T10:48:27.868Z,2.03
2022-11-20T10:49:31.483Z,2.50
2022-11-20T10:50:37.019Z,2.00
2022-11-20T10:51:47.668Z,2.55
2022-11-20T10:52:57.650Z,2.10
2022-11-20T10:54:13.806Z,2.50
2022-11-20T10:55:30.746Z,2.22
2022-11-20T10:56:41.501Z,2.45
2022-11-20T10:57:56.692Z,2.28
2022-11-20T10:59:13.183Z,2.35
2022-11-20T11:00:18.017Z,1.98
2022-11-20T11:01:23.921Z,2.15
2022-11-20T11:02:34.216Z,2.50
2022-11-20T11:03:39.577Z,2.25
2022-11-20T11:04:45.680Z,1.85
2022-11-20T11:05:52.862Z,2.20
2022-11-20T11:06:59.877Z,2.53
2022-11-20T11:08:03.167Z,2.80
2022-11-20T11:09:11.779Z,1.85
2022-11-20T11:10:19.617Z,2.20
2022-11-20T11:11:24.557Z,2.20
2022-11-20T11:12:30.312Z,2.50
2022-11-20T11:13:33.612Z,2.10
2022-11-20T11:14:45.708Z,2.60
2022-11-20T11:15:48.686Z,2.20
2022-11-20T11:16:52.631Z,3.28
2022-11-20T11:17:55.883Z,2.33
2022-11-20T11:19:07.313Z,2.10
2022-11-20T11:20:18.663Z,2.60
2022-11-20T11:21:25.699Z,2.03
2022-11-20T11:22:30.913Z,2.30
2022-11-20T11:23:37.215Z,2.13
2022-11-20T11:24:42.761Z,2.10
2022-11-20T11:25:59.476Z,2.05
2022-11-20T11:27:05.468Z,1.95
2022-11-20T11:28:23.388Z,2.38
2022-11-20T11:29:27.717Z,1.70
2022-11-20T11:30:32.929Z,2.95
2022-11-20T11:31:36.081Z,2.05
2022-11-20T11:32:38.969Z,2.22
2022-11-20T11:33:41.909Z,2.30
2022-11-20T11:34:45.540Z,2.40
2022-11-20T11:35:51.598Z,2.30
2022-11-20T11:36:57.456Z,2.05
2022-11-20T11:38:06.865Z,1.95
2022-11-20T11:39:22.369Z,2.35
2022-11-20T11:40:25.591Z,2.42
2022-11-20T11:41:34.072Z,1.90
2022-11-20T11:42:36.374Z,2.55
2022-11-20T11:43:57.345Z,2.40
2022-11-20T11:45:08.174Z,2.20
2022-11-20T11:46:26.426Z,2.00
2022-11-20T11:47:33.883Z,1.95
2022-11-20T11:48:35.808Z,1.85
2022-11-20T11:49:38.737Z,1.95
2022-11-20T11:50:50.259Z,2.13
2022-11-20T11:52:04.704Z,1.95
2022-11-20T11:53:14.215Z,2.78
2022-11-20T11:54:22.944Z,2.03
2022-11-20T11:55:33.207Z,1.95
2022-11-20T11:56:35.221Z,2.50
2022-11-20T11:57:48.295Z,2.08
2022-11-20T11:58:54.936Z,2.08
2022-11-20T12:00:03.907Z,2.10
2022-11-20T12:01:17.636Z,1.77
2022-11-20T12:02:32.002Z,1.75
2022-11-20T12:03:37.780Z,1.85
2022-11-20T12:04:46.391Z,2.05
2022-11-20T12:05:55.224Z,2.30
2022-11-20T12:07:13.223Z,2.50
2022-11-20T12:09:43.143Z,2.55
2022-11-20T12:10:50.785Z,2.25
2022-11-20T12:12:00.599Z,2.95
2022-11-20T12:13:13.653Z,2.28
2022-11-20T12:14:24.907Z,3.30
2022-11-20T12:15:32.408Z,4.78
2022-11-20T12:16:38.200Z,3.20
2022-11-20T12:17:40.321Z,2.50
2022-11-20T12:18:44.376Z,2.70
2022-11-20T12:19:47.461Z,2.90
2022-11-20T12:21:04.095Z,3.63
2022-11-20T12:22:16.400Z,2.03
2022-11-20T12:23:29.744Z,4.00
2022-11-20T12:24:43.275Z,2.00
2022-11-20T12:25:50.070Z,2.63
2022-11-20T12:27:04.042Z,2.65
2022-11-20T12:28:26.108Z,4.30
2022-11-20T12:29:41.683Z,2.63
2022-11-20T12:30:56.503Z,2.60
2022-11-20T12:32:19.405Z,4.10
2022-11-20T12:33:47.923Z,1.60
2022-11-20T12:35:06.084Z,6.70
2022-11-20T12:36:26.396Z,12.23
2022-11-20T12:37:41.083Z,5.45
2022-11-20T12:39:19.637Z,2.40
2022-11-20T12:40:37.545Z,2.03
2022-11-20T12:42:21.778Z,2.90
2022-11-20T12:43:44.324Z,2.70
2022-11-20T12:45:12.073Z,1.98
2022-11-20T12:46:32.925Z,1.77
2022-11-20T12:47:50.676Z,1.60
2022-11-20T12:49:21.821Z,1.75
2022-11-20T12:50:42.848Z,3.30
2022-11-20T12:52:28.053Z,3.35
2022-11-20T12:53:37.846Z,2.85
2022-11-20T12:55:09.857Z,2.70
2022-11-20T12:56:25.637Z,3.63
2022-11-20T12:57:37.087Z,2.20
2022-11-20T12:58:47.912Z,2.47
2022-11-20T13:00:04.883Z,2.60
2022-11-20T13:01:40.799Z,2.10
2022-11-20T13:03:20.176Z,2.50
2022-11-20T13:04:51.529Z,1.83
2022-11-20T13:06:00.746Z,2.08
2022-11-20T13:07:05.534Z,1.38
2022-11-20T13:08:19.780Z,1.35
2022-11-20T13:09:24.585Z,2.28
2022-11-20T13:10:35.395Z,2.20
2022-11-20T13:11:45.634Z,2.50
2022-11-20T13:12:54.933Z,2.20
2022-11-20T13:14:14.952Z,1.58
2022-11-20T13:15:35.024Z,1.73
2022-11-20T13:16:43.856Z,1.65
2022-11-20T13:17:53.044Z,1.50
2022-11-20T13:18:55.285Z,1.80
2022-11-20T13:20:00.426Z,1.65
2022-11-20T13:21:02.557Z,1.52
2022-11-20T13:22:05.520Z,1.60
2022-11-20T13:23:09.840Z,1.67
2022-11-20T13:24:26.939Z,1.30
2022-11-20T13:25:31.473Z,1.65
2022-11-20T13:26:34.904Z,1.38
2022-11-20T13:27:37.898Z,1.85
2022-11-20T13:28:40.944Z,1.60
2022-11-20T13:29:46.946Z,1.30
2022-11-20T13:30:51.212Z,1.60
2022-11-20T13:32:08.010Z,1.30
2022-11-20T13:33:24.917Z,1.20
2022-11-20T13:34:29.710Z,1.05
2022-11-20T13:35:34.407Z,1.17
2022-11-20T13:36:37.587Z,1.10
2022-11-20T13:37:40.767Z,1.10
2022-11-20T13:38:49.361Z,1.40
2022-11-20T13:39:51.352Z,1.20
2022-11-20T13:40:56.072Z,1.40
2022-11-20T13:41:59.640Z,1.23
2022-11-20T13:43:21.963Z,1.40
2022-11-20T13:44:29.128Z,1.30
2022-11-20T13:45:33.327Z,1.35
2022-11-20T13:46:42.086Z,1.45
2022-11-20T13:47:49.815Z,1.55
2022-11-20T13:48:55.267Z,1.38
2022-11-20T13:50:00.367Z,1.48
2022-11-20T13:51:23.315Z,1.35
2022-11-20T13:52:44.246Z,1.45
2022-11-20T13:54:24.900Z,0.98
2022-11-20T13:55:35.268Z,1.10
2022-11-20T13:56:51.820Z,1.50
2022-11-20T13:58:11.792Z,1.20
2022-11-20T13:59:30.687Z,1.40
2022-11-20T14:00:33.848Z,1.60
2022-11-20T14:01:37.250Z,1.98
2022-11-20T14:02:40.560Z,1.40
2022-11-20T14:05:07.324Z,1.45
2022-11-20T14:06:15.605Z,1.58
2022-11-20T14:07:19.445Z,1.52
2022-11-20T14:08:29.065Z,1.48
2022-11-20T14:09:35.435Z,1.40
2022-11-20T14:10:40.190Z,1.60
2022-11-20T14:11:49.732Z,1.15
2022-11-20T14:12:51.873Z,1.27
2022-11-20T14:13:58.198Z,1.20
2022-11-20T14:15:01.557Z,2.00
2022-11-20T14:16:03.679Z,1.35
2022-11-20T14:17:11.129Z,1.65
2022-11-20T14:18:15.577Z,1.00
2022-11-20T14:19:31.287Z,1.30
2022-11-20T14:20:35.016Z,2.05
2022-11-20T14:21:37.017Z,1.38
2022-11-20T14:22:39.913Z,1.30
2022-11-20T14:23:41.841Z,1.50
2022-11-20T14:24:46.210Z,1.48
2022-11-20T14:25:49.200Z,2.20
2022-11-20T14:26:52.363Z,2.50
2022-11-20T14:27:56.826Z,1.90
2022-11-20T14:28:59.281Z,2.13
2022-11-20T14:30:03.879Z,1.88
2022-11-20T14:31:14.184Z,1.77
2022-11-20T14:32:19.492Z,1.52
2022-11-20T14:33:25.767Z,2.88